Terminal Aerodrome Forecast
Issued by NWS Tulsa, OK

Home | Current Version | Previous Version | Text Only | Print | Product List | Glossary On
Versions: 1 2 3 4 5 6 7 8 9 10 11 12 13 14 15 16 17
000
FTUS44 KTSA 180520
TAFTUL
TAF
KTUL 180520Z 1806/1906 17003KT P6SM SCT250
     FM181500 19009KT P6SM OVC250 PROB30 1900/1906 3SM TSRA
      BKN030CB=

USA.gov is the U.S. government's official web portal to all federal, state and local government web resources and services.